Time;durP1;ratioP1;P1;durP2;ratioP2;P2;SDS_P1;SDS_P2;PMS_P1;PMS_P2;Temp;Humidity;BMP_temperature;BMP_pressure;BME280_temperature;BME280_humidity;BME280_pressure;Samples;Min_cycle;Max_cycle;Signal;HPM_P1;HPM_P2
2022/05/31 00:01:18;;;;;;;0.00;0.00;;;15.80;81.30;;;;;;4950852;29;20086;-68
2022/05/31 00:03:44;;;;;;;0.00;0.00;;;15.70;81.90;;;;;;4951305;29;20337;-66
2022/05/31 00:06:10;;;;;;;0.00;0.00;;;15.80;82.10;;;;;;4950779;29;20027;-66
2022/05/31 00:08:36;;;;;;;0.00;0.00;;;15.70;79.90;;;;;;4951262;29;20024;-67
2022/05/31 00:11:03;;;;;;;0.00;0.00;;;15.70;80.60;;;;;;4934275;29;20027;-68
2022/05/31 00:13:29;;;;;;;0.00;0.00;;;15.70;80.30;;;;;;4950714;29;20023;-67
2022/05/31 00:15:55;;;;;;;0.00;0.00;;;15.70;80.90;;;;;;4951432;29;20023;-66
2022/05/31 00:21:07;;;;;;;0.00;0.00;;;15.60;82.10;;;;;;4951048;29;20103;-68
2022/05/31 00:23:33;;;;;;;0.00;0.00;;;15.60;83.90;;;;;;4951300;29;20023;-68
2022/05/31 00:25:59;;;;;;;0.00;0.00;;;15.60;83.50;;;;;;4950212;29;20095;-67
2022/05/31 00:28:25;;;;;;;0.00;0.00;;;15.60;82.20;;;;;;4948815;29;20103;-68
2022/05/31 00:30:51;;;;;;;0.00;0.00;;;15.60;82.20;;;;;;4950744;29;20024;-68
2022/05/31 00:33:17;;;;;;;0.00;0.00;;;15.60;81.50;;;;;;4933357;29;20231;-68
2022/05/31 00:36:02;;;;;;;0.00;0.00;;;15.50;81.70;;;;;;4933820;29;20086;-67
2022/05/31 00:38:27;;;;;;;0.00;0.00;;;15.50;81.90;;;;;;4950430;29;20023;-67
2022/05/31 00:41:22;;;;;;;0.00;0.00;;;15.50;81.70;;;;;;4934031;29;20050;-67
2022/05/31 00:43:39;;;;;;;0.00;0.00;;;15.50;81.60;;;;;;4950487;29;20067;-67
2022/05/31 00:46:04;;;;;;;0.00;0.00;;;15.40;81.60;;;;;;4951087;29;20292;-67
2022/05/31 00:48:36;;;;;;;0.00;0.00;;;15.40;81.40;;;;;;4950415;29;20034;-67
2022/05/31 00:51:06;;;;;;;0.00;0.00;;;15.40;81.70;;;;;;4950637;29;20231;-66
2022/05/31 00:53:37;;;;;;;0.00;0.00;;;15.40;81.80;;;;;;4950336;29;20090;-67
2022/05/31 00:56:12;;;;;;;0.00;0.00;;;15.40;82.80;;;;;;4950936;29;20020;-67
2022/05/31 00:58:45;;;;;;;0.00;0.00;;;15.30;82.70;;;;;;4950976;29;20032;-67
2022/05/31 01:01:14;;;;;;;0.00;0.00;;;15.30;82.60;;;;;;4949993;29;20027;-66
2022/05/31 01:03:42;;;;;;;0.00;0.00;;;15.30;82.40;;;;;;4950910;29;20034;-66
2022/05/31 01:06:27;;;;;;;0.00;0.00;;;15.20;82.60;;;;;;4918293;29;20047;-66
2022/05/31 01:08:57;;;;;;;0.00;0.00;;;15.20;84.10;;;;;;4947602;29;20259;-66
2022/05/31 01:11:26;;;;;;;0.00;0.00;;;15.20;84.30;;;;;;4946959;29;20032;-67
2022/05/31 01:13:53;;;;;;;0.00;0.00;;;15.20;85.10;;;;;;4930678;29;20020;-66
2022/05/31 01:16:18;;;;;;;0.00;0.00;;;15.20;85.50;;;;;;4946788;29;20028;-67
2022/05/31 01:18:44;;;;;;;0.00;0.00;;;15.20;86.10;;;;;;4930848;29;20047;-67
2022/05/31 01:21:10;;;;;;;0.00;0.00;;;15.10;84.60;;;;;;4947494;29;20031;-67
2022/05/31 01:24:03;;;;;;;0.00;0.00;;;15.20;85.00;;;;;;4947325;29;20015;-66
2022/05/31 01:26:40;;;;;;;0.00;0.00;;;15.10;85.60;;;;;;4946978;29;20020;-67
2022/05/31 01:29:06;;;;;;;0.00;0.00;;;15.10;87.00;;;;;;4947562;29;20315;-67
2022/05/31 01:31:40;;;;;;;0.00;0.00;;;15.00;87.60;;;;;;4946795;29;20087;-67
2022/05/31 01:34:18;;;;;;;0.00;0.00;;;15.00;88.00;;;;;;4947502;29;20353;-67
2022/05/31 01:36:53;;;;;;;0.00;0.00;;;14.90;88.30;;;;;;4930262;29;20019;-67
2022/05/31 01:39:38;;;;;;;0.00;0.00;;;14.90;88.90;;;;;;4929774;29;20023;-67
2022/05/31 01:42:13;;;;;;;0.00;0.00;;;14.90;89.40;;;;;;4947540;29;20035;-68
2022/05/31 01:44:50;;;;;;;0.00;0.00;;;14.80;89.50;;;;;;4930352;29;20019;-66
2022/05/31 01:47:17;;;;;;;0.00;0.00;;;15.10;90.10;;;;;;4946599;29;20019;-66
2022/05/31 01:49:49;;;;;;;0.00;0.00;;;14.70;90.00;;;;;;4946787;29;20330;-66
2022/05/31 01:52:15;;;;;;;0.00;0.00;;;14.70;90.10;;;;;;4929019;29;20042;-67
2022/05/31 01:54:42;;;;;;;0.00;0.00;;;14.70;90.20;;;;;;4946862;29;20019;-66
2022/05/31 01:57:11;;;;;;;0.00;0.00;;;14.70;90.30;;;;;;4929931;29;20043;-66
2022/05/31 01:59:42;;;;;;;0.00;0.00;;;14.60;90.30;;;;;;4946372;29;20023;-66
2022/05/31 02:02:08;;;;;;;0.00;0.00;;;14.60;90.40;;;;;;4946708;29;20098;-67
2022/05/31 02:04:34;;;;;;;0.00;0.00;;;14.50;90.60;;;;;;4929277;29;20034;-66
2022/05/31 02:07:15;;;;;;;0.00;0.00;;;14.50;90.80;;;;;;4937166;29;20032;-67
2022/05/31 02:09:43;;;;;;;0.00;0.00;;;14.50;91.00;;;;;;4922246;29;20016;-67
2022/05/31 02:12:11;;;;;;;0.00;0.00;;;14.40;91.10;;;;;;4918879;29;20048;-67
2022/05/31 02:14:38;;;;;;;0.00;0.00;;;14.40;91.30;;;;;;4934282;29;20024;-67
2022/05/31 02:17:04;;;;;;;0.00;0.00;;;14.40;91.50;;;;;;4911222;29;20024;-67
2022/05/31 02:19:30;;;;;;;0.00;0.00;;;14.40;91.80;;;;;;4917875;29;20024;-67
2022/05/31 02:21:58;;;;;;;0.00;0.00;;;14.40;92.10;;;;;;4913339;29;20210;-67
2022/05/31 02:24:26;;;;;;;0.00;0.00;;;14.30;92.20;;;;;;4929235;29;20075;-67
2022/05/31 02:26:52;;;;;;;0.00;0.00;;;14.30;92.50;;;;;;4931663;29;20043;-66
2022/05/31 02:29:22;;;;;;;0.00;0.00;;;14.30;92.60;;;;;;4909215;29;20334;-67
2022/05/31 02:31:48;;;;;;;0.00;0.00;;;14.30;92.80;;;;;;4910328;29;20222;-67
2022/05/31 02:34:17;;;;;;;0.00;0.00;;;14.30;92.80;;;;;;4927015;29;20091;-67
2022/05/31 02:36:42;;;;;;;0.00;0.00;;;14.30;92.90;;;;;;4926765;29;20051;-65
2022/05/31 02:39:08;;;;;;;0.00;0.00;;;14.30;93.00;;;;;;4927066;29;20318;-66
2022/05/31 02:41:34;;;;;;;0.00;0.00;;;14.30;93.00;;;;;;4926268;29;20055;-66
2022/05/31 02:44:00;;;;;;;0.00;0.00;;;14.20;93.10;;;;;;4926709;29;20215;-66
2022/05/31 02:46:25;;;;;;;0.00;0.00;;;14.20;93.00;;;;;;4909377;29;20043;-66
2022/05/31 02:48:51;;;;;;;0.00;0.00;;;14.20;93.10;;;;;;4926905;29;20016;-65
2022/05/31 02:51:17;;;;;;;0.00;0.00;;;14.10;93.10;;;;;;4926291;29;20032;-64
2022/05/31 02:53:43;;;;;;;0.00;0.00;;;14.10;93.30;;;;;;4926582;29;20024;-67
2022/05/31 02:56:09;;;;;;;0.00;0.00;;;14.10;93.40;;;;;;4926500;29;20326;-67
2022/05/31 03:03:45;;;;;;;0.00;0.00;;;14.00;93.70;;;;;;4966129;26;20057;-65
2022/05/31 03:06:11;;;;;;;0.00;0.00;;;13.90;93.80;;;;;;4984975;28;20050;-66
2022/05/31 03:08:37;;;;;;;0.00;0.00;;;13.80;93.80;;;;;;4985027;28;20023;-65
2022/05/31 03:11:04;;;;;;;0.00;0.00;;;13.80;94.00;;;;;;4983927;28;20061;-65
2022/05/31 03:13:29;;;;;;;0.00;0.00;;;13.80;94.20;;;;;;4967500;28;20066;-65
2022/05/31 03:16:01;;;;;;;0.00;0.00;;;13.80;94.30;;;;;;4967654;28;20062;-66
2022/05/31 03:18:39;;;;;;;0.00;0.00;;;13.80;94.30;;;;;;4984877;28;20019;-66
2022/05/31 03:21:10;;;;;;;0.00;0.00;;;13.70;94.40;;;;;;4967017;28;20030;-66
2022/05/31 03:23:41;;;;;;;0.00;0.00;;;13.70;94.60;;;;;;4984617;28;20351;-65
2022/05/31 03:26:10;;;;;;;0.00;0.00;;;13.70;94.80;;;;;;4984196;28;20320;-65
2022/05/31 03:28:37;;;;;;;0.00;0.00;;;13.70;95.00;;;;;;4984471;28;20069;-65
2022/05/31 03:31:03;;;;;;;0.00;0.00;;;13.70;95.20;;;;;;4965897;28;20031;-65
2022/05/31 03:33:29;;;;;;;0.00;0.00;;;13.70;95.40;;;;;;4967043;28;20048;-65
2022/05/31 03:35:55;;;;;;;0.00;0.00;;;13.70;95.70;;;;;;4984097;28;20026;-66
2022/05/31 03:38:20;;;;;;;0.00;0.00;;;13.70;95.80;;;;;;4983892;28;20033;-65
2022/05/31 03:41:01;;;;;;;0.00;0.00;;;13.80;95.80;;;;;;4984296;28;20054;-66
2022/05/31 03:43:35;;;;;;;0.00;0.00;;;13.80;95.70;;;;;;4967174;28;20029;-66
2022/05/31 03:46:01;;;;;;;0.00;0.00;;;13.80;95.80;;;;;;4966761;28;20030;-71
2022/05/31 03:48:27;;;;;;;0.00;0.00;;;13.70;95.80;;;;;;4966989;28;20019;-66
2022/05/31 03:51:03;;;;;;;0.00;0.00;;;13.70;96.10;;;;;;4966947;28;20069;-65
2022/05/31 03:53:29;;;;;;;0.00;0.00;;;13.70;96.10;;;;;;4984206;28;20023;-65
2022/05/31 03:55:55;;;;;;;0.00;0.00;;;13.70;96.30;;;;;;4966905;28;20031;-65
2022/05/31 03:58:21;;;;;;;0.00;0.00;;;13.70;96.50;;;;;;4983832;28;20022;-66
2022/05/31 04:00:47;;;;;;;0.00;0.00;;;13.70;96.70;;;;;;4984216;28;20208;-65
2022/05/31 04:03:13;;;;;;;0.00;0.00;;;13.80;97.00;;;;;;4966221;28;20047;-66
2022/05/31 04:05:39;;;;;;;0.00;0.00;;;13.70;97.20;;;;;;4983914;28;20027;-66
2022/05/31 04:08:08;;;;;;;0.00;0.00;;;13.70;97.40;;;;;;4983567;28;20108;-66
2022/05/31 04:10:35;;;;;;;0.00;0.00;;;13.80;97.60;;;;;;4966854;28;20030;-65
2022/05/31 04:13:01;;;;;;;0.00;0.00;;;13.80;97.80;;;;;;4983789;28;20027;-65
2022/05/31 04:15:27;;;;;;;0.00;0.00;;;13.70;98.00;;;;;;4966256;28;20023;-65
2022/05/31 04:17:53;;;;;;;0.00;0.00;;;13.80;98.20;;;;;;4984017;28;20018;-65
2022/05/31 04:20:19;;;;;;;0.00;0.00;;;13.80;98.60;;;;;;4983581;28;20316;-65
2022/05/31 04:22:45;;;;;;;0.00;0.00;;;13.80;98.80;;;;;;4983966;28;20158;-65
2022/05/31 04:25:10;;;;;;;0.00;0.00;;;13.80;98.90;;;;;;4966288;28;20049;-66
2022/05/31 04:27:36;;;;;;;0.00;0.00;;;13.80;99.20;;;;;;4984090;28;20195;-65
2022/05/31 04:30:04;;;;;;;0.00;0.00;;;13.80;99.50;;;;;;4984099;28;20027;-65
2022/05/31 04:32:29;;;;;;;0.00;0.00;;;13.90;99.80;;;;;;4983893;28;20031;-66
2022/05/31 04:34:55;;;;;;;0.00;0.00;;;13.90;99.90;;;;;;4966779;28;20218;-66
2022/05/31 04:37:21;;;;;;;0.00;0.00;;;13.90;99.90;;;;;;4983410;28;20324;-66
2022/05/31 04:39:47;;;;;;;0.00;0.00;;;14.00;99.90;;;;;;4983982;28;20070;-66
2022/05/31 04:42:13;;;;;;;0.00;0.00;;;13.90;99.90;;;;;;4966285;28;20212;-67
2022/05/31 04:44:38;;;;;;;0.00;0.00;;;14.00;99.90;;;;;;4969744;28;20090;-67
2022/05/31 04:47:06;;;;;;;0.00;0.00;;;14.00;99.90;;;;;;4987717;28;20019;-66
2022/05/31 04:49:32;;;;;;;0.00;0.00;;;14.10;99.90;;;;;;4987297;28;20029;-66
2022/05/31 04:51:57;;;;;;;0.00;0.00;;;14.00;99.90;;;;;;4986991;28;20277;-66
2022/05/31 04:54:24;;;;;;;0.00;0.00;;;14.10;99.90;;;;;;4987022;28;20026;-66
2022/05/31 04:56:52;;;;;;;0.00;0.00;;;14.10;99.90;;;;;;4970297;28;20026;-66
2022/05/31 04:59:19;;;;;;;0.00;0.00;;;14.20;99.90;;;;;;4969737;28;20023;-66
2022/05/31 05:01:44;;;;;;;0.00;0.00;;;14.20;99.90;;;;;;4987124;28;20030;-66
2022/05/31 05:04:11;;;;;;;0.00;0.00;;;14.20;99.90;;;;;;4969354;28;20053;-67
2022/05/31 05:06:37;;;;;;;0.00;0.00;;;14.20;99.90;;;;;;4970096;28;20135;-66
2022/05/31 05:09:03;;;;;;;0.00;0.00;;;14.30;99.90;;;;;;4970093;28;20253;-66
2022/05/31 05:11:28;;;;;;;0.00;0.00;;;14.30;99.90;;;;;;4986648;28;20098;-66
2022/05/31 05:13:56;;;;;;;0.00;0.00;;;14.30;99.90;;;;;;4987222;28;20305;-66
2022/05/31 05:16:22;;;;;;;0.00;0.00;;;14.30;99.90;;;;;;4986509;28;20405;-65
2022/05/31 05:18:48;;;;;;;0.00;0.00;;;14.40;99.90;;;;;;4986918;28;20023;-65
2022/05/31 05:21:15;;;;;;;0.00;0.00;;;14.40;99.90;;;;;;4969375;28;20037;-65
2022/05/31 05:23:41;;;;;;;0.00;0.00;;;14.40;99.90;;;;;;4969660;28;20244;-65
2022/05/31 05:26:08;;;;;;;0.00;0.00;;;14.50;99.90;;;;;;4986877;28;20022;-66
2022/05/31 05:31:27;;;;;;;0.00;0.00;;;14.50;99.90;;;;;;4986037;28;20057;-66
2022/05/31 05:33:53;;;;;;;0.00;0.00;;;14.50;99.90;;;;;;4986601;28;20068;-66
2022/05/31 05:36:19;;;;;;;0.00;0.00;;;14.60;99.90;;;;;;4985889;28;20217;-66
2022/05/31 05:38:45;;;;;;;0.00;0.00;;;14.60;99.90;;;;;;4986320;28;20030;-66
2022/05/31 05:41:11;;;;;;;0.00;0.00;;;14.60;99.70;;;;;;4968879;28;20196;-66
2022/05/31 05:43:37;;;;;;;0.00;0.00;;;14.60;99.70;;;;;;4986085;28;20042;-66
2022/05/31 05:46:03;;;;;;;0.00;0.00;;;14.70;99.40;;;;;;4986220;28;20030;-66
2022/05/31 05:48:29;;;;;;;0.00;0.00;;;14.70;99.20;;;;;;4969019;28;20190;-66
2022/05/31 05:50:54;;;;;;;0.00;0.00;;;14.70;99.30;;;;;;4968594;28;20023;-66
2022/05/31 05:53:20;;;;;;;0.00;0.00;;;14.80;99.20;;;;;;4985585;28;20019;-66
2022/05/31 05:55:46;;;;;;;0.00;0.00;;;14.80;99.10;;;;;;4985472;28;20050;-66
2022/05/31 05:58:11;;;;;;;0.00;0.00;;;14.80;98.80;;;;;;4968513;28;20023;-67
2022/05/31 06:00:44;;;;;;;0.00;0.00;;;14.80;98.50;;;;;;4986131;28;20062;-66
2022/05/31 06:03:20;;;;;;;0.00;0.00;;;14.90;98.70;;;;;;4985522;28;20078;-71
2022/05/31 06:05:46;;;;;;;0.00;0.00;;;15.00;98.40;;;;;;4985767;28;20061;-66
2022/05/31 06:08:20;;;;;;;0.00;0.00;;;15.00;98.20;;;;;;4985543;28;20014;-66
2022/05/31 06:11:01;;;;;;;0.00;0.00;;;15.20;98.00;;;;;;4968190;28;20019;-66
2022/05/31 06:13:33;;;;;;;0.00;0.00;;;15.50;98.00;;;;;;4984923;28;20042;-67
2022/05/31 06:15:58;;;;;;;0.00;0.00;;;15.90;97.90;;;;;;4968322;28;20105;-66
2022/05/31 06:18:35;;;;;;;0.00;0.00;;;16.40;97.40;;;;;;4985317;28;20023;-67
2022/05/31 06:21:04;;;;;;;0.00;0.00;;;17.00;96.90;;;;;;4985698;28;20015;-66
2022/05/31 06:23:30;;;;;;;0.00;0.00;;;17.50;94.90;;;;;;4984702;28;20034;-66
2022/05/31 06:25:57;;;;;;;0.00;0.00;;;18.00;94.50;;;;;;4985159;28;20256;-66
2022/05/31 06:28:23;;;;;;;0.00;0.00;;;18.50;93.80;;;;;;4968123;28;20341;-66
2022/05/31 06:30:48;;;;;;;0.00;0.00;;;18.90;92.50;;;;;;4968161;28;20270;-66
2022/05/31 06:33:14;;;;;;;0.00;0.00;;;19.40;91.40;;;;;;4984842;28;20085;-67
2022/05/31 06:35:39;;;;;;;0.00;0.00;;;19.70;90.80;;;;;;4985111;28;20026;-66
2022/05/31 06:38:05;;;;;;;0.00;0.00;;;20.10;90.00;;;;;;4985187;28;20030;-66
2022/05/31 06:40:31;;;;;;;0.00;0.00;;;20.50;87.30;;;;;;4984898;28;20058;-66
2022/05/31 06:42:58;;;;;;;0.00;0.00;;;20.90;85.80;;;;;;4985382;28;20027;-66
2022/05/31 06:45:24;;;;;;;0.00;0.00;;;21.30;85.10;;;;;;4984776;28;20023;-66
2022/05/31 06:47:50;;;;;;;0.00;0.00;;;21.50;82.90;;;;;;4967761;28;20209;-66
2022/05/31 06:50:16;;;;;;;0.00;0.00;;;21.70;82.90;;;;;;4984467;28;20023;-66
2022/05/31 06:58:10;;;;;;;0.00;0.00;;;22.50;77.30;;;;;;4984938;28;20090;-66
2022/05/31 07:00:36;;;;;;;0.00;0.00;;;22.70;76.10;;;;;;4967382;28;20019;-66
2022/05/31 07:03:01;;;;;;;0.00;0.00;;;22.60;72.40;;;;;;4964208;29;20055;-66
2022/05/31 07:05:27;;;;;;;0.00;0.00;;;22.80;75.70;;;;;;4963698;28;20030;-66
2022/05/31 07:07:54;;;;;;;0.00;0.00;;;22.90;74.90;;;;;;4964953;29;20050;-66
2022/05/31 07:10:20;;;;;;;0.00;0.00;;;23.10;74.20;;;;;;4965075;29;20019;-66
2022/05/31 07:12:46;;;;;;;0.00;0.00;;;23.30;72.90;;;;;;4965336;29;20101;-66
2022/05/31 07:15:12;;;;;;;0.00;0.00;;;23.40;73.40;;;;;;4948212;29;20046;-65
2022/05/31 07:17:39;;;;;;;0.00;0.00;;;23.30;71.50;;;;;;4964610;29;20030;-66
2022/05/31 07:20:07;;;;;;;0.00;0.00;;;23.20;70.00;;;;;;4965432;29;20024;-65
2022/05/31 07:22:34;;;;;;;0.00;0.00;;;22.90;69.90;;;;;;4964670;29;20034;-66
2022/05/31 07:24:59;;;;;;;0.00;0.00;;;22.50;65.90;;;;;;4965229;29;20027;-65
2022/05/31 07:27:25;;;;;;;0.00;0.00;;;22.00;70.10;;;;;;4947693;29;20098;-66
2022/05/31 07:29:51;;;;;;;0.00;0.00;;;21.70;70.60;;;;;;4965081;29;20030;-66
2022/05/31 07:32:17;;;;;;;0.00;0.00;;;21.30;68.90;;;;;;4964696;29;20332;-70
2022/05/31 07:34:42;;;;;;;0.00;0.00;;;20.90;70.60;;;;;;4965104;29;20026;-66
2022/05/31 07:37:08;;;;;;;0.00;0.00;;;20.60;72.40;;;;;;4964793;29;20026;-66
2022/05/31 07:39:34;;;;;;;0.00;0.00;;;20.30;71.20;;;;;;4964543;29;20027;-65
2022/05/31 07:42:00;;;;;;;0.00;0.00;;;20.10;71.60;;;;;;4947777;29;20110;-66
2022/05/31 07:44:26;;;;;;;0.00;0.00;;;19.90;72.10;;;;;;4964500;29;20050;-65
2022/05/31 07:46:54;;;;;;;0.00;0.00;;;19.80;73.90;;;;;;4965267;29;20021;-65
2022/05/31 07:49:20;;;;;;;0.00;0.00;;;19.70;74.00;;;;;;4964810;29;20019;-69
2022/05/31 07:51:47;;;;;;;0.00;0.00;;;19.60;73.20;;;;;;4964800;29;20037;-67
2022/05/31 07:54:12;;;;;;;0.00;0.00;;;19.50;73.40;;;;;;4964982;29;20070;-66
2022/05/31 07:56:38;;;;;;;0.00;0.00;;;19.50;72.70;;;;;;4947509;29;20027;-66
2022/05/31 07:59:04;;;;;;;0.00;0.00;;;19.50;74.30;;;;;;4964765;29;20046;-66
2022/05/31 08:01:30;;;;;;;0.00;0.00;;;19.50;75.00;;;;;;4964261;29;20049;-66
2022/05/31 08:03:56;;;;;;;0.00;0.00;;;19.70;76.20;;;;;;4947417;29;20055;-66
2022/05/31 08:06:24;;;;;;;0.00;0.00;;;19.90;76.70;;;;;;4947311;29;20066;-66
2022/05/31 08:08:50;;;;;;;0.00;0.00;;;20.30;77.30;;;;;;4947581;29;20235;-66
2022/05/31 08:11:20;;;;;;;0.00;0.00;;;20.90;79.00;;;;;;4947539;29;20291;-66
2022/05/31 08:13:46;;;;;;;0.00;0.00;;;21.70;73.00;;;;;;4947609;29;20094;-65
2022/05/31 08:16:14;;;;;;;0.00;0.00;;;22.60;76.00;;;;;;4964498;29;20049;-66
2022/05/31 08:18:40;;;;;;;;;;;23.50;72.90;;;;;;4967680;28;20278;-66
2022/05/31 08:21:17;;;;;;;0.00;0.00;;;24.30;72.40;;;;;;4968660;29;19909;-66
2022/05/31 08:23:43;;;;;;;;;;;25.30;70.90;;;;;;4951275;29;20210;-66
2022/05/31 08:26:09;;;;;;;0.00;0.00;;;26.20;68.50;;;;;;4951211;29;19906;-66
2022/05/31 08:28:35;;;;;;;0.00;0.00;;;26.70;67.50;;;;;;4968004;29;20087;-66
2022/05/31 08:31:04;;;;;;;0.00;0.00;;;27.10;63.90;;;;;;4950930;29;20030;-66
2022/05/31 08:33:30;;;;;;;0.00;0.00;;;27.60;64.50;;;;;;4968168;29;20038;-67
2022/05/31 08:35:56;;;;;;;0.00;0.00;;;28.30;63.90;;;;;;4951165;29;20098;-66
2022/05/31 08:38:23;;;;;;;0.00;0.00;;;29.10;62.10;;;;;;4950937;29;20023;-68
2022/05/31 08:41:03;;;;;;;0.00;0.00;;;29.80;60.60;;;;;;4968424;29;20023;-67
2022/05/31 08:43:38;;;;;;;0.00;0.00;;;30.10;58.90;;;;;;4968071;29;20083;-66
2022/05/31 08:46:10;;;;;;;0.00;0.00;;;30.60;58.40;;;;;;4968102;29;20292;-67
2022/05/31 08:48:44;;;;;;;0.00;0.00;;;30.80;57.50;;;;;;4967963;29;20050;-68
2022/05/31 08:56:57;;;;;;;0.00;0.00;;;32.00;56.90;;;;;;4967891;29;20022;-67
2022/05/31 08:59:48;;;;;;;0.00;0.00;;;32.20;54.00;;;;;;4935477;29;20019;-68
2022/05/31 09:02:24;;;;;;;0.00;0.00;;;32.50;55.60;;;;;;4965930;29;20050;-67
2022/05/31 09:05:03;;;;;;;0.00;0.00;;;32.60;55.80;;;;;;4948786;29;20066;-67
2022/05/31 09:07:37;;;;;;;0.00;0.00;;;32.90;54.70;;;;;;4931377;29;20321;-67
2022/05/31 09:10:16;;;;;;;0.00;0.00;;;33.40;55.30;;;;;;4931758;29;20038;-67
2022/05/31 09:13:02;;;;;;;0.00;0.00;;;34.10;53.30;;;;;;4948153;29;20107;-68
2022/05/31 09:15:47;;;;;;;0.00;0.00;;;33.20;50.50;;;;;;4930939;29;20090;-68
2022/05/31 09:18:52;;;;;;;0.00;0.00;;;33.20;54.20;;;;;;4948693;29;20020;-68
2022/05/31 09:21:27;;;;;;;0.00;0.00;;;34.10;52.80;;;;;;4948438;29;20314;-68
2022/05/31 09:23:55;;;;;;;0.00;0.00;;;34.70;50.20;;;;;;4948529;29;20038;-68
2022/05/31 09:26:32;;;;;;;0.00;0.00;;;35.40;49.70;;;;;;4948431;29;20019;-69
2022/05/31 09:29:42;;;;;;;0.00;0.00;;;35.90;47.80;;;;;;4947508;29;20086;-67
2022/05/31 09:32:19;;;;;;;0.00;0.00;;;35.70;47.00;;;;;;4934931;29;20360;-68
2022/05/31 09:35:00;;;;;;;0.00;0.00;;;36.30;49.20;;;;;;4930979;29;20234;-68
2022/05/31 09:37:56;;;;;;;0.00;0.00;;;37.00;48.20;;;;;;4947961;29;20306;-68
2022/05/31 09:40:47;;;;;;;0.00;0.00;;;36.90;46.70;;;;;;4931135;29;20274;-67
2022/05/31 09:43:36;;;;;;;0.00;0.00;;;36.90;47.10;;;;;;4931268;29;20027;-68
2022/05/31 09:46:10;;;;;;;0.00;0.00;;;37.00;43.80;;;;;;4947625;29;20015;-67
2022/05/31 09:48:46;;;;;;;0.00;0.00;;;36.60;44.60;;;;;;4947549;29;20019;-66
2022/05/31 09:51:39;;;;;;;0.00;0.00;;;37.10;47.60;;;;;;4947940;29;20077;-67
2022/05/31 09:57:05;;;;;;;0.00;0.00;;;38.30;45.70;;;;;;4947186;29;20207;-67
2022/05/31 09:59:32;;;;;;;0.00;0.00;;;38.80;44.20;;;;;;4947458;29;20031;-67
2022/05/31 10:02:26;;;;;;;0.00;0.00;;;38.90;42.30;;;;;;4930764;29;20023;-66
2022/05/31 10:05:18;;;;;;;0.00;0.00;;;38.90;43.10;;;;;;4947764;29;20040;-67
2022/05/31 10:07:46;;;;;;;0.00;0.00;;;39.10;41.60;;;;;;4929869;29;20027;-67
2022/05/31 10:10:24;;;;;;;0.00;0.00;;;39.30;40.40;;;;;;4947604;29;20030;-67
2022/05/31 10:12:57;;;;;;;0.00;0.00;;;39.40;41.60;;;;;;4947101;29;20034;-67
2022/05/31 10:15:45;;;;;;;0.00;0.00;;;39.90;42.50;;;;;;4930618;29;20027;-67
2022/05/31 10:18:29;;;;;;;0.00;0.00;;;40.40;40.50;;;;;;4947268;29;20073;-67
2022/05/31 10:21:02;;;;;;;0.00;0.00;;;40.70;42.90;;;;;;4930831;29;20071;-68
2022/05/31 10:23:41;;;;;;;0.00;0.00;;;40.90;40.30;;;;;;4930397;29;20019;-72
2022/05/31 10:26:07;;;;;;;0.00;0.00;;;41.20;41.40;;;;;;4930198;29;20024;-68
2022/05/31 10:28:41;;;;;;;0.00;0.00;;;41.30;39.70;;;;;;4929714;29;20019;-68
2022/05/31 10:31:14;;;;;;;0.00;0.00;;;40.80;37.60;;;;;;4947435;29;20022;-68
2022/05/31 10:33:40;;;;;;;0.00;0.00;;;40.60;38.50;;;;;;4946494;29;20090;-69
2022/05/31 10:36:18;;;;;;;0.00;0.00;;;41.30;40.00;;;;;;4946956;29;20202;-67
2022/05/31 10:38:46;;;;;;;0.00;0.00;;;41.80;40.40;;;;;;4946528;29;20032;-67
2022/05/31 10:41:21;;;;;;;0.00;0.00;;;42.50;39.10;;;;;;4946982;29;20043;-68
2022/05/31 10:43:51;;;;;;;0.00;0.00;;;42.80;36.10;;;;;;4946875;29;20219;-68
2022/05/31 10:46:27;;;;;;;0.00;0.00;;;41.90;36.40;;;;;;4946961;29;20034;-68
2022/05/31 10:48:55;;;;;;;0.00;0.00;;;41.70;37.30;;;;;;4946654;29;20345;-68
2022/05/31 10:51:53;;;;;;;0.00;0.00;;;41.40;36.00;;;;;;4929825;29;20209;-68
2022/05/31 10:54:58;;;;;;;0.00;0.00;;;41.60;38.00;;;;;;4929769;29;20024;-68
2022/05/31 10:57:53;;;;;;;0.00;0.00;;;41.70;38.20;;;;;;4946840;29;20027;-67
2022/05/31 11:00:36;;;;;;;0.00;0.00;;;41.70;37.20;;;;;;4929923;29;20220;-67
2022/05/31 11:03:40;;;;;;;0.00;0.00;;;41.70;37.90;;;;;;4937543;29;20182;-67
2022/05/31 11:06:23;;;;;;;0.00;0.00;;;42.40;39.60;;;;;;4888075;29;20097;-67
2022/05/31 11:11:55;;;;;;;0.00;0.00;;;43.40;37.90;;;;;;4964888;29;20123;-68
2022/05/31 11:14:39;;;;;;;0.00;0.00;;;42.70;36.50;;;;;;4965555;29;20024;-67
2022/05/31 11:17:19;;;;;;;0.00;0.00;;;43.10;39.20;;;;;;4965537;29;20019;-67
2022/05/31 11:20:09;;;;;;;0.00;0.00;;;42.00;36.80;;;;;;4947737;29;20023;-68
2022/05/31 11:22:46;;;;;;;0.00;0.00;;;41.00;37.80;;;;;;4965169;29;20023;-68
2022/05/31 11:25:39;;;;;;;0.00;0.00;;;40.10;38.00;;;;;;4965190;29;20143;-67
2022/05/31 11:28:07;;;;;;;0.00;0.00;;;39.20;36.90;;;;;;4948035;29;20019;-67
2022/05/31 11:30:46;;;;;;;0.00;0.00;;;38.10;38.30;;;;;;4964933;29;20023;-68
2022/05/31 11:33:47;;;;;;;0.00;0.00;;;35.90;37.50;;;;;;4964967;29;20318;-67
2022/05/31 11:36:43;;;;;;;0.00;0.00;;;34.50;39.10;;;;;;4965226;29;20019;-68
2022/05/31 11:39:33;;;;;;;0.00;0.00;;;33.00;40.50;;;;;;4916356;29;20038;-67
2022/05/31 11:41:59;;;;;;;0.00;0.00;;;31.60;42.40;;;;;;4964900;29;20102;-67
2022/05/31 11:44:46;;;;;;;0.00;0.00;;;30.70;45.20;;;;;;4947952;29;20019;-67
2022/05/31 11:47:34;;;;;;;0.00;0.00;;;30.10;45.10;;;;;;4964766;29;20015;-67
2022/05/31 11:50:20;;;;;;;0.00;0.00;;;29.50;45.70;;;;;;4948132;29;20063;-67
2022/05/31 11:53:20;;;;;;;0.00;0.00;;;28.70;46.40;;;;;;4963839;28;20031;-67
2022/05/31 11:56:00;;;;;;;0.00;0.00;;;27.90;48.00;;;;;;4964665;29;20267;-67
2022/05/31 11:58:42;;;;;;;0.00;0.00;;;27.20;48.90;;;;;;4947522;29;20019;-67
2022/05/31 12:01:55;;;;;;;0.00;0.00;;;26.90;50.20;;;;;;4964742;29;20019;-67
2022/05/31 12:04:33;;;;;;;0.00;0.00;;;26.60;51.20;;;;;;4915691;29;20321;-67
2022/05/31 12:07:21;;;;;;;0.00;0.00;;;26.50;52.50;;;;;;4928119;29;20094;-68
2022/05/31 12:09:56;;;;;;;0.00;0.00;;;26.30;51.80;;;;;;4928393;29;20019;-67
2022/05/31 12:12:32;;;;;;;0.00;0.00;;;26.20;54.60;;;;;;4928816;29;20039;-67
2022/05/31 12:15:10;;;;;;;0.00;0.00;;;25.90;51.90;;;;;;4945343;29;20019;-66
2022/05/31 12:18:04;;;;;;;;;;;25.80;52.60;;;;;;4945778;29;20247;-71
2022/05/31 12:20:49;;;;;;;0.00;0.00;;;25.80;52.80;;;;;;4893904;29;19904;-67
2022/05/31 12:23:49;;;;;;;0.00;0.00;;;25.60;53.70;;;;;;4945728;29;20039;-67
2022/05/31 12:26:27;;;;;;;0.00;0.00;;;25.60;53.60;;;;;;4945751;29;20016;-67
2022/05/31 12:28:57;;;;;;;;;;;25.50;53.90;;;;;;4928469;29;20024;-67
2022/05/31 12:31:28;;;;;;;0.00;0.00;;;25.40;54.50;;;;;;4945183;29;20165;-67
2022/05/31 12:34:13;;;;;;;0.00;0.00;;;25.30;53.70;;;;;;4944873;29;20019;-67
2022/05/31 12:37:15;;;;;;;0.00;0.00;;;25.30;53.80;;;;;;4928296;29;20043;-67
2022/05/31 12:39:43;;;;;;;0.00;0.00;;;25.20;53.70;;;;;;4849495;29;20022;-67
2022/05/31 12:42:14;;;;;;;0.00;0.00;;;25.20;54.50;;;;;;4927808;29;20090;-66
2022/05/31 12:44:42;;;;;;;0.00;0.00;;;25.20;54.40;;;;;;4945022;29;20020;-67
2022/05/31 12:47:30;;;;;;;0.00;0.00;;;25.10;54.60;;;;;;4944954;29;20030;-67
2022/05/31 12:50:01;;;;;;;0.00;0.00;;;25.10;55.30;;;;;;4945019;29;20047;-67
2022/05/31 12:55:13;;;;;;;0.00;0.00;;;24.90;54.70;;;;;;4945401;29;20031;-67
2022/05/31 13:00:45;;;;;;;0.00;0.00;;;24.80;54.50;;;;;;4945135;29;20127;-67
2022/05/31 13:03:33;;;;;;;0.00;0.00;;;24.70;54.50;;;;;;4945049;29;20043;-67
2022/05/31 13:06:04;;;;;;;0.00;0.00;;;24.60;55.90;;;;;;4947925;29;20162;-67
2022/05/31 13:08:48;;;;;;;0.00;0.00;;;24.60;55.20;;;;;;4931584;29;20068;-67
2022/05/31 13:20:18;;;;;;;0.00;0.00;;;24.60;56.30;;;;;;4889361;29;20086;-67
2022/05/31 13:22:48;;;;;;;0.00;0.00;;;24.60;55.70;;;;;;4924871;29;20042;-67
2022/05/31 13:25:28;;;;;;;0.00;0.00;;;24.60;56.30;;;;;;4948247;29;20072;-67
2022/05/31 13:27:57;;;;;;;0.00;0.00;;;24.60;57.10;;;;;;4947796;29;20291;-67
2022/05/31 13:30:29;;;;;;;0.00;0.00;;;24.60;55.90;;;;;;4948427;29;20102;-66
2022/05/31 13:32:57;;;;;;;0.00;0.00;;;24.70;54.80;;;;;;4947827;29;20024;-67
2022/05/31 13:35:28;;;;;;;0.00;0.00;;;24.70;55.00;;;;;;4930998;29;20306;-67
2022/05/31 13:38:20;;;;;;;0.00;0.00;;;24.70;54.30;;;;;;4947435;29;20032;-67
2022/05/31 13:40:55;;;;;;;0.00;0.00;;;24.60;54.80;;;;;;4930476;29;20023;-68
2022/05/31 13:43:27;;;;;;;0.00;0.00;;;24.60;55.30;;;;;;4948036;29;20051;-67
2022/05/31 13:45:57;;;;;;;0.00;0.00;;;24.70;55.80;;;;;;4947428;29;20016;-67
2022/05/31 13:48:26;;;;;;;0.00;0.00;;;24.70;55.60;;;;;;4947875;29;20027;-65
2022/05/31 13:50:57;;;;;;;0.00;0.00;;;24.70;53.70;;;;;;4947161;29;20052;-66
2022/05/31 13:53:24;;;;;;;0.00;0.00;;;24.80;54.10;;;;;;4947291;29;20339;-67
2022/05/31 13:55:58;;;;;;;0.00;0.00;;;24.80;55.60;;;;;;4930175;29;20028;-68